createdAt,value
2023-05-20T00:00:16.344Z,938.81
2023-05-20T00:01:16.416Z,938.81
2023-05-20T00:02:16.316Z,938.77
2023-05-20T00:03:16.364Z,938.75
2023-05-20T00:04:16.338Z,938.78
2023-05-20T00:05:16.283Z,938.76
2023-05-20T00:06:16.311Z,938.77
2023-05-20T00:07:16.260Z,938.78
2023-05-20T00:08:16.270Z,938.77
2023-05-20T00:09:16.278Z,938.76
2023-05-20T00:10:16.236Z,938.75
2023-05-20T00:11:16.266Z,938.70
2023-05-20T00:12:16.215Z,938.74
2023-05-20T00:13:16.211Z,938.71
2023-05-20T00:14:16.184Z,938.66
2023-05-20T00:15:16.259Z,938.69
2023-05-20T00:16:16.335Z,938.67
2023-05-20T00:17:16.173Z,938.62
2023-05-20T00:18:16.195Z,938.60
2023-05-20T00:19:16.549Z,938.59
2023-05-20T00:20:16.649Z,938.56
2023-05-20T00:21:16.114Z,938.56
2023-05-20T00:22:16.110Z,938.57
2023-05-20T00:23:16.107Z,938.55
2023-05-20T00:24:16.084Z,938.55
2023-05-20T00:25:16.115Z,938.53
2023-05-20T00:26:16.102Z,938.55
2023-05-20T00:27:16.065Z,938.58
2023-05-20T00:28:16.078Z,938.52
2023-05-20T00:29:16.028Z,938.51
2023-05-20T00:30:16.031Z,938.48
2023-05-20T00:31:16.601Z,938.44
2023-05-20T00:32:16.081Z,938.49
2023-05-20T00:33:16.014Z,938.43
2023-05-20T00:34:15.968Z,938.47
2023-05-20T00:35:15.968Z,938.47
2023-05-20T00:36:16.008Z,938.44
2023-05-20T00:37:15.961Z,938.48
2023-05-20T00:38:15.931Z,938.46
2023-05-20T00:39:15.934Z,938.51
2023-05-20T00:40:15.960Z,938.46
2023-05-20T00:41:15.990Z,938.46
2023-05-20T00:42:15.914Z,938.50
2023-05-20T00:43:15.913Z,938.46
2023-05-20T00:44:15.863Z,938.49
2023-05-20T00:45:15.852Z,938.46
2023-05-20T00:46:15.947Z,938.45
2023-05-20T00:47:15.865Z,938.48
2023-05-20T00:48:15.822Z,938.52
2023-05-20T00:49:15.819Z,938.53
2023-05-20T00:50:15.807Z,938.53
2023-05-20T00:51:15.829Z,938.48
2023-05-20T00:52:15.874Z,938.50
2023-05-20T00:53:15.848Z,938.47
2023-05-20T00:54:15.763Z,938.44
2023-05-20T00:55:15.754Z,938.41
2023-05-20T00:56:15.743Z,938.45
2023-05-20T00:57:15.727Z,938.46
2023-05-20T00:58:16.150Z,938.45
2023-05-20T00:59:15.750Z,938.47
2023-05-20T01:00:15.690Z,938.49
2023-05-20T01:01:15.774Z,938.49
2023-05-20T01:02:15.716Z,938.47
2023-05-20T01:03:15.838Z,938.51
2023-05-20T01:04:15.659Z,938.49
2023-05-20T01:05:15.628Z,938.49
2023-05-20T01:06:15.636Z,938.46
2023-05-20T01:07:15.620Z,938.49
2023-05-20T01:08:15.623Z,938.46
2023-05-20T01:09:15.592Z,938.44
2023-05-20T01:10:15.595Z,938.43
2023-05-20T01:11:15.572Z,938.44
2023-05-20T01:12:15.566Z,938.41
2023-05-20T01:13:15.572Z,938.43
2023-05-20T01:14:15.547Z,938.46
2023-05-20T01:15:15.600Z,938.39
2023-05-20T01:16:15.598Z,938.40
2023-05-20T01:17:15.533Z,938.38
2023-05-20T01:18:15.494Z,938.40
2023-05-20T01:19:15.530Z,938.34
2023-05-20T01:20:15.474Z,938.34
2023-05-20T01:21:15.534Z,938.29
2023-05-20T01:22:15.463Z,938.31
2023-05-20T01:23:15.505Z,938.23
2023-05-20T01:24:15.515Z,938.20
2023-05-20T01:25:15.438Z,938.17
2023-05-20T01:26:15.408Z,938.19
2023-05-20T01:27:15.407Z,938.22
2023-05-20T01:28:15.391Z,938.25
2023-05-20T01:29:16.126Z,938.22
2023-05-20T01:30:15.398Z,938.19
2023-05-20T01:31:15.415Z,938.18
2023-05-20T01:32:15.339Z,938.23
2023-05-20T01:33:15.370Z,938.22
2023-05-20T01:34:15.326Z,938.22
2023-05-20T01:35:15.321Z,938.23
2023-05-20T01:36:15.297Z,938.20
2023-05-20T01:37:15.310Z,938.26
2023-05-20T01:38:15.284Z,938.27
2023-05-20T01:39:15.309Z,938.26
2023-05-20T01:40:15.272Z,938.26
2023-05-20T01:41:15.252Z,938.29
2023-05-20T01:42:15.236Z,938.33
2023-05-20T01:43:17.364Z,938.30
2023-05-20T01:44:15.214Z,938.29
2023-05-20T01:45:15.219Z,938.35
2023-05-20T01:46:15.254Z,938.32
2023-05-20T01:47:15.204Z,938.38
2023-05-20T01:48:15.164Z,938.35
2023-05-20T01:49:15.198Z,938.36
2023-05-20T01:50:15.144Z,938.31
2023-05-20T01:51:15.144Z,938.34
2023-05-20T01:52:15.182Z,938.34
2023-05-20T01:53:15.128Z,938.32
2023-05-20T01:54:15.176Z,938.27
2023-05-20T01:55:15.111Z,938.28
2023-05-20T01:56:15.076Z,938.23
2023-05-20T01:57:15.106Z,938.23
2023-05-20T01:58:15.181Z,938.23
2023-05-20T01:59:15.072Z,938.25
2023-05-20T02:00:15.038Z,938.21
2023-05-20T02:01:15.078Z,938.24
2023-05-20T02:02:15.093Z,938.26
2023-05-20T02:03:15.113Z,938.24
2023-05-20T02:04:15.044Z,938.28
2023-05-20T02:05:15.634Z,938.25
2023-05-20T02:06:15.017Z,938.23
2023-05-20T02:07:14.979Z,938.24
2023-05-20T02:08:14.975Z,938.21
2023-05-20T02:09:14.994Z,938.22
2023-05-20T02:10:14.940Z,938.20
2023-05-20T02:11:15.006Z,938.22
2023-05-20T02:12:14.915Z,938.23
2023-05-20T02:13:14.922Z,938.28
2023-05-20T02:14:14.918Z,938.27
2023-05-20T02:15:15.649Z,938.34
2023-05-20T02:16:14.903Z,938.28
2023-05-20T02:17:14.891Z,938.27
2023-05-20T02:18:14.879Z,938.24
2023-05-20T02:19:14.926Z,938.19
2023-05-20T02:20:14.841Z,938.22
2023-05-20T02:21:14.818Z,938.17
2023-05-20T02:22:14.877Z,938.17
2023-05-20T02:23:14.828Z,938.18
2023-05-20T02:24:14.844Z,938.17
2023-05-20T02:25:14.849Z,938.16
2023-05-20T02:26:14.840Z,938.17
2023-05-20T02:27:14.800Z,938.16
2023-05-20T02:28:14.746Z,938.14
2023-05-20T02:29:14.735Z,938.13
2023-05-20T02:30:14.742Z,938.16
2023-05-20T02:31:14.727Z,938.21
2023-05-20T02:32:14.741Z,938.21
2023-05-20T02:33:14.807Z,938.19
2023-05-20T02:34:14.771Z,938.25
2023-05-20T02:35:14.694Z,938.23
2023-05-20T02:36:14.661Z,938.19
2023-05-20T02:37:14.716Z,938.21
2023-05-20T02:38:14.658Z,938.22
2023-05-20T02:39:14.676Z,938.22
2023-05-20T02:40:14.682Z,938.19
2023-05-20T02:41:14.609Z,938.18
2023-05-20T02:42:14.607Z,938.14
2023-05-20T02:43:14.589Z,938.16
2023-05-20T02:44:14.585Z,938.10
2023-05-20T02:45:14.588Z,938.13
2023-05-20T02:46:25.555Z,938.13
2023-05-20T02:47:14.544Z,938.10
2023-05-20T02:48:14.525Z,938.13
2023-05-20T02:49:14.553Z,938.12
2023-05-20T02:50:14.535Z,938.12
2023-05-20T02:51:14.529Z,938.13
2023-05-20T02:52:14.507Z,938.14
2023-05-20T02:53:14.490Z,938.12
2023-05-20T02:54:14.464Z,938.10
2023-05-20T02:55:14.479Z,938.13
2023-05-20T02:56:14.491Z,938.15
2023-05-20T02:57:14.460Z,938.18
2023-05-20T02:58:14.418Z,938.18
2023-05-20T02:59:14.432Z,938.22
2023-05-20T03:00:14.447Z,938.22
2023-05-20T03:01:14.422Z,938.22
2023-05-20T03:02:14.383Z,938.24
2023-05-20T03:03:14.398Z,938.22
2023-05-20T03:04:15.257Z,938.22
2023-05-20T03:05:14.351Z,938.18
2023-05-20T03:06:14.397Z,938.11
2023-05-20T03:07:14.347Z,938.17
2023-05-20T03:08:14.334Z,938.17
2023-05-20T03:09:14.392Z,938.12
2023-05-20T03:10:14.328Z,938.12
2023-05-20T03:11:14.301Z,938.17
2023-05-20T03:12:14.287Z,938.16
2023-05-20T03:13:14.264Z,938.18
2023-05-20T03:14:14.275Z,938.16
2023-05-20T03:15:14.251Z,938.14
2023-05-20T03:16:14.315Z,938.17
2023-05-20T03:17:14.220Z,938.18
2023-05-20T03:18:14.222Z,938.19
2023-05-20T03:19:14.220Z,938.19
2023-05-20T03:21:42.416Z,938.21
2023-05-20T03:22:42.381Z,938.23
2023-05-20T03:23:42.310Z,938.24
2023-05-20T03:24:42.310Z,938.24
2023-05-20T03:25:42.312Z,938.25
2023-05-20T03:26:42.343Z,938.24
2023-05-20T03:27:42.269Z,938.22
2023-05-20T03:28:42.253Z,938.20
2023-05-20T03:29:42.235Z,938.21
2023-05-20T03:30:42.237Z,938.21
2023-05-20T03:31:42.284Z,938.21
2023-05-20T03:32:42.239Z,938.22
2023-05-20T03:33:42.213Z,938.23
2023-05-20T03:34:42.204Z,938.22
2023-05-20T03:35:42.200Z,938.23
2023-05-20T03:36:42.170Z,938.18
2023-05-20T03:37:42.160Z,938.13
2023-05-20T03:38:42.216Z,938.24
2023-05-20T03:39:42.131Z,938.16
2023-05-20T03:40:42.196Z,938.14
2023-05-20T03:41:42.156Z,938.17
2023-05-20T03:42:42.119Z,938.16
2023-05-20T03:43:42.136Z,938.15
2023-05-20T03:44:42.130Z,938.17
2023-05-20T03:45:42.094Z,938.19
2023-05-20T03:46:42.189Z,938.17
2023-05-20T03:47:42.097Z,938.18
2023-05-20T03:48:42.069Z,938.15
2023-05-20T03:49:42.033Z,938.10
2023-05-20T03:50:42.126Z,938.10
2023-05-20T03:51:42.071Z,938.10
2023-05-20T03:52:42.024Z,938.15
2023-05-20T03:53:42.006Z,938.14
2023-05-20T03:54:42.163Z,938.12
2023-05-20T03:55:41.979Z,938.19
2023-05-20T03:56:41.969Z,938.14
2023-05-20T03:57:41.972Z,938.17
2023-05-20T03:58:41.984Z,938.13
2023-05-20T03:59:41.922Z,938.13
2023-05-20T04:00:41.931Z,938.07
2023-05-20T04:01:41.978Z,938.03
2023-05-20T04:02:42.000Z,938.05
2023-05-20T04:03:42.026Z,938.10
2023-05-20T04:04:41.885Z,938.04
2023-05-20T04:05:41.931Z,938.03
2023-05-20T04:06:41.853Z,937.99
2023-05-20T04:07:41.847Z,938.04
2023-05-20T04:08:41.833Z,938.02
2023-05-20T04:09:41.819Z,938.02
2023-05-20T04:10:41.843Z,938.02
2023-05-20T04:11:41.805Z,938.04
2023-05-20T04:12:41.810Z,938.02
2023-05-20T04:13:41.813Z,937.98
2023-05-20T04:14:41.834Z,937.99
2023-05-20T04:15:41.787Z,937.95
2023-05-20T04:16:46.625Z,937.98
2023-05-20T04:17:41.788Z,937.99
2023-05-20T04:18:41.754Z,938.02
2023-05-20T04:19:41.736Z,938.03
2023-05-20T04:20:41.701Z,938.06
2023-05-20T04:21:41.708Z,938.06
2023-05-20T04:22:41.710Z,938.06
2023-05-20T04:23:41.708Z,938.10
2023-05-20T04:24:41.686Z,938.08
2023-05-20T04:25:41.653Z,938.04
2023-05-20T04:26:41.684Z,938.03
2023-05-20T04:27:41.671Z,937.98
2023-05-20T04:28:41.625Z,937.97
2023-05-20T04:29:41.736Z,938.01
2023-05-20T04:30:41.590Z,937.99
2023-05-20T04:31:41.646Z,937.99
2023-05-20T04:32:42.107Z,938.01
2023-05-20T04:33:41.741Z,938.04
2023-05-20T04:34:41.597Z,937.99
2023-05-20T04:35:41.670Z,938.04
2023-05-20T04:36:41.576Z,938.04
2023-05-20T04:37:41.556Z,938.05
2023-05-20T04:38:41.599Z,938.10
2023-05-20T04:39:41.530Z,938.03
2023-05-20T04:40:41.536Z,938.05
2023-05-20T04:41:41.782Z,938.06
2023-05-20T04:42:41.484Z,938.05
2023-05-20T04:43:41.459Z,938.04
2023-05-20T04:44:42.433Z,938.05
2023-05-20T04:45:41.448Z,938.07
2023-05-20T04:46:41.455Z,938.07
2023-05-20T04:47:41.443Z,938.06
2023-05-20T04:48:41.411Z,938.05
2023-05-20T04:49:41.614Z,938.07
2023-05-20T04:50:41.418Z,938.05
2023-05-20T04:51:41.379Z,938.06
2023-05-20T04:52:41.361Z,938.06
2023-05-20T04:53:41.351Z,938.06
2023-05-20T04:54:41.356Z,938.11
2023-05-20T04:55:41.340Z,938.03
2023-05-20T04:56:41.318Z,938.06
2023-05-20T04:57:41.368Z,938.02
2023-05-20T04:58:42.136Z,938.08
2023-05-20T04:59:41.307Z,938.04
2023-05-20T05:00:41.312Z,938.03
2023-05-20T05:01:41.304Z,938.04
2023-05-20T05:02:41.276Z,938.04
2023-05-20T05:03:41.249Z,938.05
2023-05-20T05:04:41.394Z,938.08
2023-05-20T05:05:41.262Z,938.07
2023-05-20T05:06:41.220Z,938.07
2023-05-20T05:07:41.203Z,938.03
2023-05-20T05:08:41.205Z,938.05
2023-05-20T05:09:41.194Z,938.02
2023-05-20T05:10:41.177Z,938.02
2023-05-20T05:11:41.227Z,938.02
2023-05-20T05:12:41.159Z,938.02
2023-05-20T05:13:41.152Z,937.92
2023-05-20T05:14:41.199Z,937.89
2023-05-20T05:15:41.135Z,937.89
2023-05-20T05:16:41.136Z,937.90
2023-05-20T05:17:41.229Z,937.92
2023-05-20T05:18:41.130Z,937.88
2023-05-20T05:19:41.081Z,937.91
2023-05-20T05:20:41.067Z,937.88
2023-05-20T05:21:41.059Z,937.88
2023-05-20T05:22:41.089Z,937.85
2023-05-20T05:23:41.037Z,937.87
2023-05-20T05:24:41.036Z,937.83
2023-05-20T05:25:41.100Z,937.87
2023-05-20T05:26:41.042Z,937.92
2023-05-20T05:27:40.998Z,937.92
2023-05-20T05:28:41.009Z,937.91
2023-05-20T05:29:40.993Z,937.85
2023-05-20T05:30:40.993Z,937.87
2023-05-20T05:31:40.960Z,937.88
2023-05-20T05:32:40.998Z,937.90
2023-05-20T05:33:40.969Z,937.90
2023-05-20T05:34:41.028Z,937.92
2023-05-20T05:35:40.947Z,937.96
2023-05-20T05:36:40.903Z,937.97
2023-05-20T05:37:40.886Z,937.94
2023-05-20T05:38:40.929Z,937.96
2023-05-20T05:39:40.879Z,937.98
2023-05-20T05:40:40.873Z,938.02
2023-05-20T05:41:40.848Z,938.00
2023-05-20T05:42:40.926Z,937.97
2023-05-20T05:43:40.820Z,937.98
2023-05-20T05:44:40.831Z,937.99
2023-05-20T05:45:40.873Z,938.04
2023-05-20T05:46:40.858Z,938.03
2023-05-20T05:47:40.872Z,938.09
2023-05-20T05:48:40.784Z,938.08
2023-05-20T05:49:40.825Z,938.09
2023-05-20T05:50:40.753Z,938.10
2023-05-20T05:51:40.772Z,938.08
2023-05-20T05:52:40.733Z,938.12
2023-05-20T05:53:40.739Z,938.07
2023-05-20T05:54:40.698Z,938.10
2023-05-20T05:55:40.707Z,938.10
2023-05-20T05:56:41.630Z,938.16
2023-05-20T05:57:40.720Z,938.14
2023-05-20T05:58:40.692Z,938.12
2023-05-20T05:59:40.659Z,938.09
2023-05-20T06:00:40.676Z,938.13
2023-05-20T06:01:40.683Z,938.08
2023-05-20T06:02:40.698Z,938.08
2023-05-20T06:03:40.730Z,938.10
2023-05-20T06:04:40.627Z,938.07
2023-05-20T06:05:40.726Z,938.05
2023-05-20T06:06:40.581Z,938.06
2023-05-20T06:07:40.575Z,938.04
2023-05-20T06:08:40.586Z,938.02
2023-05-20T06:09:40.571Z,938.02
2023-05-20T06:10:40.612Z,938.00
2023-05-20T06:11:40.598Z,937.97
2023-05-20T06:12:40.525Z,938.01
2023-05-20T06:13:40.521Z,937.96
2023-05-20T06:14:40.537Z,937.91
2023-05-20T06:15:40.521Z,937.96
2023-05-20T06:16:40.522Z,937.92
2023-05-20T06:17:40.492Z,937.85
2023-05-20T06:18:40.502Z,937.91
2023-05-20T06:19:40.525Z,937.89
2023-05-20T06:20:40.672Z,937.92
2023-05-20T06:21:40.425Z,937.88
2023-05-20T06:22:40.428Z,937.87
2023-05-20T06:23:40.428Z,937.83
2023-05-20T06:24:40.446Z,937.82
2023-05-20T06:25:40.638Z,937.84
2023-05-20T06:26:40.393Z,937.84
2023-05-20T06:27:40.370Z,937.78
2023-05-20T06:28:40.375Z,937.76
2023-05-20T06:29:42.378Z,937.76
2023-05-20T06:30:40.507Z,937.74
2023-05-20T06:31:40.341Z,937.70
2023-05-20T06:32:40.352Z,937.72
2023-05-20T06:33:40.320Z,937.71
2023-05-20T06:34:40.294Z,937.74
2023-05-20T06:35:40.277Z,937.67
2023-05-20T06:36:40.254Z,937.69
2023-05-20T06:37:40.275Z,937.68
2023-05-20T06:38:40.647Z,937.68
2023-05-20T06:39:40.268Z,937.69
2023-05-20T06:40:40.225Z,937.65
2023-05-20T06:41:40.221Z,937.69
2023-05-20T06:42:40.194Z,937.73
2023-05-20T06:43:40.189Z,937.74
2023-05-20T06:44:40.233Z,937.72
2023-05-20T06:45:40.195Z,937.74
2023-05-20T06:46:45.300Z,937.73
2023-05-20T06:47:40.159Z,937.73
2023-05-20T06:48:40.151Z,937.76
2023-05-20T06:49:40.130Z,937.79
2023-05-20T06:50:40.172Z,937.79
2023-05-20T06:51:40.132Z,937.74
2023-05-20T06:52:40.138Z,937.80
2023-05-20T06:53:40.121Z,937.81
2023-05-20T06:54:40.091Z,937.83
2023-05-20T06:55:40.062Z,937.77
2023-05-20T06:56:40.060Z,937.74
2023-05-20T06:57:40.043Z,937.73
2023-05-20T06:58:40.126Z,937.72
2023-05-20T06:59:40.052Z,937.80
2023-05-20T07:00:39.996Z,937.80
2023-05-20T07:01:40.073Z,937.82
2023-05-20T07:02:40.074Z,937.79
2023-05-20T07:03:40.051Z,937.74
2023-05-20T07:04:40.044Z,937.72
2023-05-20T07:05:39.967Z,937.73
2023-05-20T07:06:40.078Z,937.75
2023-05-20T07:07:40.070Z,937.76
2023-05-20T07:08:39.937Z,937.74
2023-05-20T07:09:39.905Z,937.73
2023-05-20T07:10:39.904Z,937.73
2023-05-20T07:11:39.932Z,937.68
2023-05-20T07:12:39.867Z,937.71
2023-05-20T07:13:39.880Z,937.63
2023-05-20T07:14:39.859Z,937.62
2023-05-20T07:15:39.954Z,937.66
2023-05-20T07:16:54.641Z,937.63
2023-05-20T07:17:40.025Z,937.59
2023-05-20T07:18:39.864Z,937.54
2023-05-20T07:19:39.812Z,937.53
2023-05-20T07:20:39.790Z,937.55
2023-05-20T07:21:39.800Z,937.52
2023-05-20T07:22:40.170Z,937.53
2023-05-20T07:23:39.784Z,937.50
2023-05-20T07:24:39.747Z,937.57
2023-05-20T07:25:39.730Z,937.56
2023-05-20T07:26:39.790Z,937.50
2023-05-20T07:27:39.757Z,937.47
2023-05-20T07:28:39.727Z,937.47
2023-05-20T07:29:39.698Z,937.48
2023-05-20T07:30:39.714Z,937.44
2023-05-20T07:31:39.790Z,937.43
2023-05-20T07:32:39.783Z,937.43
2023-05-20T07:33:39.665Z,937.39
2023-05-20T07:34:39.646Z,937.38
2023-05-20T07:35:39.675Z,937.41
2023-05-20T07:36:39.626Z,937.38
2023-05-20T07:37:39.605Z,937.34
2023-05-20T07:38:41.184Z,937.30
2023-05-20T07:39:39.610Z,937.31
2023-05-20T07:40:39.584Z,937.28
2023-05-20T07:41:39.634Z,937.27
2023-05-20T07:42:39.552Z,937.29
2023-05-20T07:43:39.717Z,937.34
2023-05-20T07:44:39.608Z,937.31
2023-05-20T07:45:39.585Z,937.25
2023-05-20T07:46:39.773Z,937.20
2023-05-20T07:47:39.590Z,937.16
2023-05-20T07:48:39.493Z,937.20
2023-05-20T07:49:40.137Z,937.16
2023-05-20T07:50:39.506Z,937.18
2023-05-20T07:51:39.467Z,937.15
2023-05-20T07:53:39.493Z,937.12
2023-05-20T07:54:39.448Z,937.16
2023-05-20T07:55:39.438Z,937.11
2023-05-20T07:56:39.435Z,937.11
2023-05-20T07:57:39.434Z,937.04
2023-05-20T07:58:39.390Z,937.06
2023-05-20T07:59:39.385Z,937.00
2023-05-20T08:00:39.393Z,937.00
2023-05-20T08:01:39.392Z,936.92
2023-05-20T08:02:39.736Z,937.03
2023-05-20T08:03:39.406Z,937.00
2023-05-20T08:04:39.415Z,936.96
2023-05-20T08:05:39.324Z,936.92
2023-05-20T08:06:39.304Z,936.97
2023-05-20T08:07:39.320Z,936.97
2023-05-20T08:08:39.275Z,936.91
2023-05-20T08:09:39.273Z,936.93
2023-05-20T08:10:39.332Z,936.95
2023-05-20T08:11:39.248Z,936.93
2023-05-20T08:12:39.290Z,936.89
2023-05-20T08:13:39.272Z,936.89
2023-05-20T08:14:39.225Z,936.89
2023-05-20T08:15:39.208Z,936.84
2023-05-20T08:16:39.232Z,936.78
2023-05-20T08:17:39.311Z,936.79
2023-05-20T08:18:39.375Z,936.78
2023-05-20T08:19:39.176Z,936.80
2023-05-20T08:20:39.186Z,936.78
2023-05-20T08:21:39.153Z,936.81
2023-05-20T08:23:44.933Z,936.83
2023-05-20T08:23:45.401Z,936.86
2023-05-20T08:24:45.342Z,936.88
2023-05-20T08:25:45.362Z,936.85
2023-05-20T08:26:45.290Z,936.84
2023-05-20T08:27:45.276Z,936.79
2023-05-20T08:28:45.276Z,936.77
2023-05-20T08:29:45.254Z,936.79
2023-05-20T08:30:45.299Z,936.77
2023-05-20T08:31:45.288Z,936.69
2023-05-20T08:32:45.383Z,936.69
2023-05-20T08:33:45.266Z,936.69
2023-05-20T08:34:45.227Z,936.70
2023-05-20T08:35:45.238Z,936.70
2023-05-20T08:36:45.254Z,936.78
2023-05-20T08:37:45.459Z,936.68
2023-05-20T08:38:45.176Z,936.72
2023-05-20T08:39:45.177Z,936.67
2023-05-20T08:40:45.183Z,936.77
2023-05-20T08:41:45.152Z,936.76
2023-05-20T08:42:45.173Z,936.71
2023-05-20T08:43:45.123Z,936.76
2023-05-20T08:44:45.119Z,936.66
2023-05-20T08:45:45.109Z,936.72
2023-05-20T08:46:50.250Z,936.71
2023-05-20T08:47:45.611Z,936.84
2023-05-20T08:48:45.129Z,936.75
2023-05-20T08:49:45.070Z,936.86
2023-05-20T08:50:45.176Z,936.90
2023-05-20T08:51:45.053Z,936.83
2023-05-20T08:52:45.569Z,936.75
2023-05-20T08:53:45.042Z,936.70
2023-05-20T08:54:45.009Z,936.73
2023-05-20T08:55:45.003Z,936.65
2023-05-20T08:56:45.064Z,936.70
2023-05-20T08:57:45.002Z,936.71
2023-05-20T08:58:45.027Z,936.70
2023-05-20T08:59:44.951Z,936.58
2023-05-20T09:00:44.945Z,936.69
2023-05-20T09:01:44.973Z,936.69
2023-05-20T09:02:44.939Z,936.75
2023-05-20T09:03:44.910Z,936.75
2023-05-20T09:04:44.971Z,936.71
2023-05-20T09:05:45.017Z,936.71
2023-05-20T09:06:44.926Z,936.71
2023-05-20T09:07:44.898Z,936.70
2023-05-20T09:08:44.932Z,936.70
2023-05-20T09:09:45.560Z,936.78
2023-05-20T09:10:44.845Z,936.83
2023-05-20T09:11:44.911Z,936.86
2023-05-20T09:12:44.860Z,936.79
2023-05-20T09:13:44.845Z,936.76
2023-05-20T09:14:44.808Z,936.72
2023-05-20T09:15:44.817Z,936.70
2023-05-20T09:16:44.876Z,936.75
2023-05-20T09:17:44.803Z,936.69
2023-05-20T09:18:44.780Z,936.69
2023-05-20T09:19:44.746Z,936.73
2023-05-20T09:20:44.770Z,936.71
2023-05-20T09:21:44.745Z,936.70
2023-05-20T09:22:44.723Z,936.68
2023-05-20T09:23:44.727Z,936.65
2023-05-20T09:24:44.693Z,936.63
2023-05-20T09:25:44.682Z,936.62
2023-05-20T09:26:44.667Z,936.58
2023-05-20T09:27:44.707Z,936.58
2023-05-20T09:28:44.668Z,936.52
2023-05-20T09:29:44.663Z,936.47
2023-05-20T09:30:46.146Z,936.54
2023-05-20T09:31:44.699Z,936.55
2023-05-20T09:32:44.662Z,936.57
2023-05-20T09:33:44.635Z,936.58
2023-05-20T09:34:44.585Z,936.53
2023-05-20T09:35:44.572Z,936.52
2023-05-20T09:36:44.559Z,936.54
2023-05-20T09:37:44.583Z,936.51
2023-05-20T09:38:44.581Z,936.47
2023-05-20T09:39:44.663Z,936.46
2023-05-20T09:40:44.523Z,936.48
2023-05-20T09:41:44.604Z,936.55
2023-05-20T09:42:44.538Z,936.54
2023-05-20T09:43:44.545Z,936.56
2023-05-20T09:44:44.513Z,936.55
2023-05-20T09:45:44.557Z,936.57
2023-05-20T09:46:55.216Z,936.57
2023-05-20T09:47:44.577Z,936.63
2023-05-20T09:48:44.450Z,936.68
2023-05-20T09:49:44.458Z,936.62
2023-05-20T09:50:44.449Z,936.59
2023-05-20T09:51:44.415Z,936.60
2023-05-20T09:52:44.386Z,936.60
2023-05-20T09:53:44.378Z,936.54
2023-05-20T09:54:44.371Z,936.49
2023-05-20T09:55:44.429Z,936.57
2023-05-20T09:56:44.373Z,936.52
2023-05-20T09:57:44.340Z,936.50
2023-05-20T09:58:44.323Z,936.50
2023-05-20T09:59:44.331Z,936.42
2023-05-20T10:00:44.320Z,936.43
2023-05-20T10:01:44.381Z,936.55
2023-05-20T10:02:44.335Z,936.53
2023-05-20T10:03:44.596Z,936.48
2023-05-20T10:04:44.287Z,936.47
2023-05-20T10:05:44.270Z,936.45
2023-05-20T10:06:44.269Z,936.50
2023-05-20T10:07:44.258Z,936.47
2023-05-20T10:08:44.222Z,936.39
2023-05-20T10:09:44.221Z,936.45
2023-05-20T10:10:44.319Z,936.34
2023-05-20T10:11:44.637Z,936.41
2023-05-20T10:12:44.186Z,936.43
2023-05-20T10:13:44.186Z,936.47
2023-05-20T10:14:44.198Z,936.38
2023-05-20T10:15:44.250Z,936.41
2023-05-20T10:16:49.201Z,936.47
2023-05-20T10:17:44.243Z,936.49
2023-05-20T10:18:44.162Z,936.33
2023-05-20T10:19:44.142Z,936.35
2023-05-20T10:20:44.099Z,936.39
2023-05-20T10:21:44.099Z,936.47
2023-05-20T10:22:44.084Z,936.44
2023-05-20T10:23:44.114Z,936.42
2023-05-20T10:24:44.142Z,936.37
2023-05-20T10:25:44.091Z,936.29
2023-05-20T10:26:44.050Z,936.29
2023-05-20T10:27:44.095Z,936.35
2023-05-20T10:28:44.155Z,936.35
2023-05-20T10:29:44.105Z,936.32
2023-05-20T10:30:44.622Z,936.29
2023-05-20T10:31:44.031Z,936.21
2023-05-20T10:32:44.077Z,936.26
2023-05-20T10:33:44.104Z,936.28
2023-05-20T10:34:43.963Z,936.28
2023-05-20T10:35:44.038Z,936.31
2023-05-20T10:36:43.947Z,936.28
2023-05-20T10:37:43.943Z,936.26
2023-05-20T10:38:43.954Z,936.32
2023-05-20T10:39:43.981Z,936.28
2023-05-20T10:40:43.933Z,936.23
2023-05-20T10:41:43.931Z,936.28
2023-05-20T10:42:43.894Z,936.17
2023-05-20T10:43:43.879Z,936.17
2023-05-20T10:44:43.915Z,936.22
2023-05-20T10:45:43.864Z,936.21
2023-05-20T10:47:43.897Z,936.24
2023-05-20T10:48:43.951Z,936.24
2023-05-20T10:49:43.799Z,936.23
2023-05-20T10:50:43.804Z,936.18
2023-05-20T10:51:43.780Z,936.19
2023-05-20T10:52:43.789Z,936.28
2023-05-20T10:53:43.794Z,936.16
2023-05-20T10:54:43.767Z,936.14
2023-05-20T10:55:43.742Z,936.19
2023-05-20T10:56:43.730Z,936.07
2023-05-20T10:57:43.723Z,936.06
2023-05-20T10:58:44.784Z,936.05
2023-05-20T10:59:43.745Z,936.05
2023-05-20T11:00:43.738Z,936.04
2023-05-20T11:01:43.753Z,936.19
2023-05-20T11:02:43.721Z,936.12
2023-05-20T11:03:43.726Z,936.13
2023-05-20T11:04:43.660Z,936.03
2023-05-20T11:05:43.631Z,935.98
2023-05-20T11:06:43.669Z,936.00
2023-05-20T11:07:43.695Z,935.91
2023-05-20T11:08:43.613Z,935.90
2023-05-20T11:09:43.599Z,935.61
2023-05-20T11:10:43.600Z,935.77
2023-05-20T11:11:43.600Z,935.67
2023-05-20T11:12:43.671Z,935.56
2023-05-20T11:13:43.603Z,935.55
2023-05-20T11:14:43.598Z,935.48
2023-05-20T11:15:43.566Z,935.39
2023-05-20T11:16:43.700Z,935.49
2023-05-20T11:17:43.600Z,935.36
2023-05-20T11:18:43.536Z,935.45
2023-05-20T11:19:43.548Z,935.58
2023-05-20T11:20:43.520Z,935.47
2023-05-20T11:21:43.529Z,935.41
2023-05-20T11:22:43.503Z,935.41
2023-05-20T11:23:43.506Z,935.44
2023-05-20T11:24:43.497Z,935.54
2023-05-20T11:25:43.497Z,935.56
2023-05-20T11:26:43.484Z,935.57
2023-05-20T11:27:43.428Z,935.57
2023-05-20T11:28:43.531Z,935.56
2023-05-20T11:29:43.441Z,935.58
2023-05-20T11:30:43.404Z,935.61
2023-05-20T11:31:43.562Z,935.61
2023-05-20T11:32:43.445Z,935.59
2023-05-20T11:33:43.409Z,935.59
2023-05-20T11:34:43.346Z,935.58
2023-05-20T11:35:43.392Z,935.60
2023-05-20T11:36:43.407Z,935.62
2023-05-20T11:37:43.354Z,935.60
2023-05-20T11:38:43.309Z,935.35
2023-05-20T11:39:43.309Z,935.35
2023-05-20T11:40:50.617Z,935.37
2023-05-20T11:41:44.301Z,935.35
2023-05-20T11:42:43.301Z,935.32
2023-05-20T11:43:43.286Z,935.34
2023-05-20T11:44:43.238Z,935.42
2023-05-20T11:45:43.313Z,935.40
2023-05-20T11:46:43.323Z,935.36
2023-05-20T11:47:43.257Z,935.33
2023-05-20T11:48:43.263Z,935.33
2023-05-20T11:49:43.199Z,935.26
2023-05-20T11:50:43.185Z,935.28
2023-05-20T11:51:43.212Z,935.29
2023-05-20T11:52:43.189Z,935.23
2023-05-20T11:53:43.234Z,935.28
2023-05-20T11:54:43.137Z,935.32
2023-05-20T11:55:43.215Z,935.31
2023-05-20T11:56:43.153Z,935.24
2023-05-20T11:57:43.121Z,935.28
2023-05-20T11:58:43.112Z,935.24
2023-05-20T11:59:43.639Z,935.26
2023-05-20T12:00:51.712Z,935.33
2023-05-20T12:01:44.108Z,935.29
2023-05-20T12:02:43.077Z,935.31
2023-05-20T12:03:43.137Z,935.27
2023-05-20T12:04:43.083Z,935.37
2023-05-20T12:05:43.032Z,935.27
2023-05-20T12:06:43.011Z,935.24
2023-05-20T12:07:43.042Z,935.26
2023-05-20T12:08:43.026Z,935.21
2023-05-20T12:09:43.018Z,935.22
2023-05-20T12:10:42.991Z,935.16
2023-05-20T12:11:43.187Z,935.18
2023-05-20T12:12:42.991Z,935.27
2023-05-20T12:13:42.993Z,935.22
2023-05-20T12:14:42.937Z,935.27
2023-05-20T12:15:42.981Z,935.22
2023-05-20T12:16:47.734Z,935.24
2023-05-20T12:17:43.009Z,935.27
2023-05-20T12:18:42.937Z,935.25
2023-05-20T12:19:42.971Z,935.26
2023-05-20T12:20:42.908Z,935.26
2023-05-20T12:21:42.864Z,935.31
2023-05-20T12:22:42.853Z,935.21
2023-05-20T12:23:42.854Z,935.20
2023-05-20T12:24:42.866Z,935.27
2023-05-20T12:25:42.839Z,935.13
2023-05-20T12:26:42.835Z,935.17
2023-05-20T12:27:42.804Z,935.18
2023-05-20T12:28:42.801Z,935.18
2023-05-20T12:29:42.818Z,935.14
2023-05-20T12:30:42.776Z,935.02
2023-05-20T12:31:42.793Z,935.01